Weather History for O'Neill, NE

Change the Weather History Date:

Tuesday, November 4, 2014

  Actual Average Record
Temperature  
Mean Temperature 44 °F -  
Max Temperature 61 °F 50 °F 77 °F (1999)
Min Temperature 27 °F 27 °F -2 °F (1991)
Degree Days  
Heating Degree Days 21    
Moisture  
Dew Point 31 °F    
Average Humidity 67    
Maximum Humidity 99    
Minimum Humidity 33    
Precipitation  
Precipitation 0.01 in - - ()
Sea Level Pressure  
Sea Level Pressure 30.08 in    
Wind  
Wind Speed 8 mph (WSW)    
Max Wind Speed 17 mph    
Max Gust Speed 24 mph    
Visibility 10 miles    
Events      
Averages and records for this station are not official NWS values.
T = Trace of Precipitation, MM = Missing Value Source: NWS Daily Summary

Daily Weather History Graph

Daily Weather History Graph

Search for Another Location

Airport:

Trip Planner

Search our weather history database for the weather conditions in past years. The results will help you decide how hot, cold, wet, or windy it might be!

Date:

Astronomy

Nov. 04, 2014 Rise Set
Actual Time 7:12 AM CST 5:23 PM CST
Civil Twilight 6:42 AM CST 5:53 PM CST
Nautical Twilight 6:09 AM CST 6:26 PM CST
Astronomical Twilight 5:36 AM CST 6:59 PM CST
Moon 4:14 PM CST (11/4) 4:28 AM CST (11/4)
Length of Visible Light 11h 10m
Length of Day
10h 11m
Waxing Gibbous, 94% of the Moon is Illuminated
Nov 4
Waxing Gibbous
Nov 6
Full
Nov 14
Last Quarter
Nov 22
New
Nov 29
First Quarter

Hourly Weather History & Observations

Time (CST) Temp. Windchill Dew Point Humidity Pressure Visibility Wind Dir Wind Speed Gust Speed Precip Events Conditions
12:15 AM 37.0 °F 30.4 °F 34.7 °F 91% 30.09 in 10.0 mi WNW 9.2 mph - N/A   Clear
12:35 AM 36.9 °F 29.6 °F 34.7 °F 92% 30.09 in 10.0 mi WNW 10.4 mph - N/A   Clear
12:55 AM 36.5 °F 29.7 °F 34.0 °F 91% 30.09 in 10.0 mi WNW 9.2 mph - N/A   Clear
1:15 AM 36.5 °F 29.7 °F 33.8 °F 90% 30.08 in 10.0 mi WNW 9.2 mph - N/A   Clear
1:35 AM 36.0 °F 29.6 °F 33.1 °F 89% 30.07 in 10.0 mi WNW 8.1 mph - N/A   Clear
1:55 AM 35.4 °F 29.7 °F 32.9 °F 91% 30.07 in 10.0 mi WNW 6.9 mph - N/A   Clear
2:15 AM 35.1 °F 29.3 °F 32.4 °F 90% 30.07 in 10.0 mi WNW 6.9 mph - N/A   Clear
2:35 AM 34.2 °F 29.0 °F 32.0 °F 92% 30.08 in 10.0 mi West 5.8 mph - N/A   Clear
2:55 AM 32.5 °F 26.2 °F 31.1 °F 94% 30.09 in 10.0 mi West 6.9 mph - N/A   Clear
3:15 AM 32.2 °F 27.7 °F 30.6 °F 94% 30.10 in 10.0 mi WSW 4.6 mph - N/A   Clear
3:35 AM 31.6 °F 26.0 °F 30.6 °F 96% 30.10 in 10.0 mi WSW 5.8 mph - N/A   Clear
3:55 AM 31.6 °F 27.0 °F 30.2 °F 94% 30.11 in 10.0 mi SW 4.6 mph - N/A   Clear
4:15 AM 30.7 °F 26.0 °F 29.5 °F 95% 30.11 in 10.0 mi SW 4.6 mph - N/A   Clear
4:35 AM 29.3 °F 24.3 °F 28.4 °F 96% 30.12 in 10.0 mi SW 4.6 mph - N/A   Clear
4:55 AM 28.4 °F 23.3 °F 27.5 °F 96% 30.11 in 10.0 mi SW 4.6 mph - N/A   Clear
5:15 AM 28.4 °F 21.2 °F 27.5 °F 96% 30.12 in 10.0 mi SW 6.9 mph - N/A   Clear
5:35 AM 28.4 °F 23.3 °F 28.0 °F 99% 30.11 in 10.0 mi SW 4.6 mph - N/A   Clear
5:55 AM 28.0 °F 20.8 °F 27.3 °F 97% 30.12 in 10.0 mi SW 6.9 mph - N/A   Clear
6:15 AM 27.9 °F 22.6 °F 27.1 °F 97% 30.11 in 10.0 mi SW 4.6 mph - N/A   Clear
6:35 AM 28.6 °F 23.5 °F 27.5 °F 96% 30.11 in 10.0 mi SW 4.6 mph - N/A   Clear
6:55 AM 29.1 °F 24.1 °F 27.9 °F 95% 30.11 in 10.0 mi WSW 4.6 mph - N/A   Clear
7:15 AM 28.8 °F 23.7 °F 27.3 °F 94% 30.12 in 10.0 mi SW 4.6 mph - N/A   Clear
7:35 AM 29.1 °F 23.0 °F 27.7 °F 94% 30.12 in 10.0 mi SW 5.8 mph - N/A   Clear
7:55 AM 31.6 °F 24.4 °F 29.7 °F 92% 30.13 in 10.0 mi WSW 8.1 mph - N/A   Clear
8:15 AM 35.2 °F 27.6 °F 31.1 °F 85% 30.13 in 10.0 mi WSW 10.4 mph - N/A   Clear
8:35 AM 37.0 °F 29.8 °F 31.8 °F 81% 30.14 in 10.0 mi West 10.4 mph - N/A   Clear
8:55 AM 39.2 °F 32.0 °F 32.5 °F 77% 30.14 in 10.0 mi West 11.5 mph - N/A   Clear
9:15 AM 42.4 °F 35.7 °F 34.0 °F 72% 30.14 in 10.0 mi West 12.7 mph - N/A   Clear
9:35 AM 44.6 °F 37.8 °F 34.9 °F 69% 30.15 in 10.0 mi West 15.0 mph - N/A   Clear
9:55 AM 46.9 °F - 36.1 °F 66% 30.15 in 10.0 mi West 11.5 mph - N/A   Clear
10:15 AM 49.3 °F - 35.6 °F 59% 30.14 in 10.0 mi West 10.4 mph - N/A   Clear
10:35 AM 51.6 °F - 35.8 °F 55% 30.14 in 10.0 mi West 13.8 mph - N/A   Clear
10:55 AM 53.4 °F - 35.1 °F 50% 30.14 in 10.0 mi WNW 13.8 mph 17.3 mph N/A   Clear
11:15 AM 54.7 °F - 33.6 °F 45% 30.14 in 10.0 mi West 11.5 mph - N/A   Clear
11:35 AM 55.8 °F - 33.8 °F 44% 30.13 in 10.0 mi West 10.4 mph - N/A   Clear
11:55 AM 56.5 °F - 32.9 °F 41% 30.12 in 10.0 mi West 10.4 mph - N/A   Clear
12:15 PM 57.6 °F - 32.4 °F 39% 30.11 in 10.0 mi West 11.5 mph - N/A   Clear
12:35 PM 58.3 °F - 33.1 °F 39% 30.10 in 10.0 mi West 12.7 mph 24.2 mph N/A   Clear
12:55 PM 59.0 °F - 32.5 °F 37% 30.10 in 10.0 mi West 9.2 mph 16.1 mph N/A   Clear
1:15 PM 59.7 °F - 32.0 °F 35% 30.09 in 10.0 mi West 13.8 mph 19.6 mph N/A   Clear
1:35 PM 60.6 °F - 32.0 °F 34% 30.07 in 10.0 mi WNW 12.7 mph 17.3 mph N/A   Clear
1:55 PM 61.0 °F - 31.8 °F 33% 30.07 in 10.0 mi West 17.3 mph 21.9 mph N/A   Clear
2:15 PM 61.0 °F - 31.8 °F 33% 30.07 in 10.0 mi West 16.1 mph - N/A   Clear
2:35 PM 61.2 °F - 31.5 °F 33% 30.06 in 10.0 mi West 15.0 mph 18.4 mph N/A   Clear
2:55 PM 61.2 °F - 31.5 °F 33% 30.06 in 10.0 mi West 13.8 mph 18.4 mph N/A   Clear
3:15 PM 60.8 °F - 31.3 °F 33% 30.06 in 10.0 mi West 11.5 mph 17.3 mph N/A   Clear
3:35 PM 60.6 °F - 31.6 °F 34% 30.06 in 10.0 mi WNW 15.0 mph 19.6 mph N/A   Clear
3:55 PM 60.4 °F - 31.1 °F 33% 30.06 in 10.0 mi WNW 13.8 mph 19.6 mph N/A   Clear
4:15 PM 59.7 °F - 32.0 °F 35% 30.06 in 10.0 mi WNW 10.4 mph 18.4 mph N/A   Clear
4:35 PM 59.0 °F - 32.0 °F 36% 30.06 in 10.0 mi West 9.2 mph - N/A   Clear
4:55 PM 56.5 °F - 32.0 °F 39% 30.05 in 10.0 mi West 5.8 mph - N/A   Clear
5:15 PM 53.4 °F - 32.0 °F 44% 30.05 in 10.0 mi West 5.8 mph - N/A   Clear
5:35 PM 49.5 °F - 31.8 °F 51% 30.06 in 10.0 mi West 6.9 mph - N/A   Clear
5:55 PM 49.1 °F - 31.1 °F 50% 30.06 in 10.0 mi WSW 3.5 mph - N/A   Clear
6:15 PM 50.0 °F - 30.7 °F 48% 30.06 in 10.0 mi West 5.8 mph - N/A   Clear
6:35 PM 46.9 °F - 30.0 °F 52% 30.05 in 10.0 mi SW 3.5 mph - N/A   Clear
6:55 PM 45.7 °F 42.7 °F 31.5 °F 58% 30.05 in 10.0 mi WSW 5.8 mph - N/A   Clear
7:15 PM 46.0 °F 44.8 °F 30.6 °F 55% 30.05 in 10.0 mi SW 3.5 mph - N/A   Clear
7:35 PM 41.4 °F 38.4 °F 30.2 °F 65% 30.04 in 10.0 mi SW 4.6 mph - N/A   Clear
7:55 PM 39.9 °F 35.8 °F 29.8 °F 67% 30.04 in 10.0 mi SSW 5.8 mph - N/A   Clear
8:15 PM 38.7 °F 32.9 °F 29.3 °F 69% 30.04 in 10.0 mi SSW 8.1 mph - N/A   Clear
8:35 PM 36.7 °F 32.9 °F 28.9 °F 74% 30.03 in 10.0 mi SSW 4.6 mph - N/A   Clear
8:55 PM 37.4 °F 31.4 °F 29.3 °F 73% 30.04 in 10.0 mi SW 8.1 mph - N/A   Clear
9:15 PM 38.5 °F 34.1 °F 29.7 °F 71% 30.04 in 10.0 mi SSW 5.8 mph - N/A   Clear
9:35 PM 38.7 °F 36.3 °F 29.5 °F 70% 30.04 in 10.0 mi SW 3.5 mph - N/A   Clear
9:55 PM 39.4 °F 35.2 °F 30.0 °F 69% 30.04 in 10.0 mi SSW 5.8 mph - N/A   Clear
10:15 PM 39.9 °F 35.1 °F 30.2 °F 68% 30.04 in 10.0 mi SW 6.9 mph - N/A   Clear
10:35 PM 40.3 °F 34.9 °F 30.2 °F 67% 30.04 in 10.0 mi SW 8.1 mph - N/A   Clear
10:55 PM 41.2 °F 36.6 °F 30.6 °F 66% 30.03 in 10.0 mi SSW 6.9 mph - N/A   Clear
11:15 PM 40.8 °F 35.0 °F 30.6 °F 67% 30.02 in 10.0 mi SW 9.2 mph - N/A   Clear
11:35 PM 40.8 °F 35.0 °F 31.1 °F 68% 30.02 in 10.0 mi SW 9.2 mph - N/A   Clear
11:55 PM 40.5 °F 37.3 °F 31.1 °F 69% 30.01 in 10.0 mi SW 4.6 mph - N/A   Clear